Time;durP1;ratioP1;P1;durP2;ratioP2;P2;SDS_P1;SDS_P2;PMS_P1;PMS_P2;Temp;Humidity;BMP_temperature;BMP_pressure;BME280_temperature;BME280_humidity;BME280_pressure;Samples;Min_cycle;Max_cycle;Signal;HPM_P1;HPM_P2
2023/06/09 00:00:32;;;;;;;4.00;2.93;;;;;;;18.93;100.00;96016.00;5012100;28;101936;-60
2023/06/09 00:03:00;;;;;;;3.57;2.90;;;;;;;18.87;100.00;96014.56;5007772;28;105487;-60
2023/06/09 00:05:31;;;;;;;3.20;2.90;;;;;;;18.75;100.00;96008.97;5008345;28;101940;-60
2023/06/09 00:07:59;;;;;;;3.17;2.97;;;;;;;18.72;100.00;96012.28;5010068;28;102493;-60
2023/06/09 00:10:26;;;;;;;6.63;3.33;;;;;;;18.91;100.00;96010.16;5007759;28;105384;-60
2023/06/09 00:12:55;;;;;;;3.37;2.83;;;;;;;18.79;100.00;96001.84;5010077;28;101814;-60
2023/06/09 00:15:22;;;;;;;3.10;2.90;;;;;;;18.82;100.00;96003.94;5011956;28;105361;-60
2023/06/09 00:17:49;;;;;;;3.40;2.90;;;;;;;18.79;100.00;95996.44;5011110;28;105042;-60
2023/06/09 00:20:16;;;;;;;4.37;3.00;;;;;;;18.87;100.00;95995.69;5011703;28;101893;-60
2023/06/09 00:22:44;;;;;;;3.13;2.80;;;;;;;18.82;100.00;95987.75;5014607;28;105545;-60
2023/06/09 00:25:13;;;;;;;3.07;2.80;;;;;;;18.67;100.00;95988.16;5013003;28;101850;-60
2023/06/09 00:27:40;;;;;;;3.30;3.00;;;;;;;18.61;100.00;95992.09;5013256;28;102421;-60
2023/06/09 00:30:09;;;;;;;4.43;3.10;;;;;;;18.59;100.00;95988.94;5011094;28;103691;-60
2023/06/09 00:32:37;;;;;;;3.80;3.00;;;;;;;18.47;100.00;95996.81;5013129;28;102043;-60
2023/06/09 00:35:05;;;;;;;2.90;2.70;;;;;;;18.30;100.00;95991.25;5011423;28;103750;-60
2023/06/09 00:37:32;;;;;;;4.70;3.03;;;;;;;18.34;100.00;95997.66;5010745;28;105389;-60
2023/06/09 00:39:59;;;;;;;3.20;2.90;;;;;;;18.27;100.00;95989.22;5013020;28;101739;-60
2023/06/09 00:42:26;;;;;;;3.40;3.10;;;;;;;18.42;100.00;95988.84;5011537;28;105641;-60
2023/06/09 00:44:53;;;;;;;3.93;3.07;;;;;;;18.42;100.00;95995.03;5013793;28;105270;-60
2023/06/09 00:47:23;;;;;;;4.97;3.17;;;;;;;18.45;100.00;95990.91;5011594;28;104817;-60
2023/06/09 00:49:50;;;;;;;3.97;2.93;;;;;;;18.41;100.00;95987.25;5010474;28;105358;-60
2023/06/09 00:52:17;;;;;;;3.13;2.83;;;;;;;18.38;100.00;95996.75;5011368;28;101893;-60
2023/06/09 00:54:45;;;;;;;4.13;3.10;;;;;;;18.35;100.00;95993.88;5011344;28;105214;-60
2023/06/09 00:57:12;;;;;;;3.63;3.10;;;;;;;18.22;100.00;95986.63;5010441;28;105814;-60
2023/06/09 00:59:39;;;;;;;5.97;3.00;;;;;;;18.22;100.00;95986.63;5011106;28;102342;-60
2023/06/09 01:02:07;;;;;;;4.87;2.90;;;;;;;18.05;100.00;95984.63;5011383;28;103861;-60
2023/06/09 01:04:36;;;;;;;5.47;3.33;;;;;;;18.05;100.00;95981.16;5010455;28;105007;-60
2023/06/09 01:07:12;;;;;;;3.20;2.90;;;;;;;17.98;100.00;95980.81;5014168;28;101968;-60
2023/06/09 01:09:44;;;;;;;3.87;3.03;;;;;;;18.06;100.00;95970.09;5010591;28;105335;-60
2023/06/09 01:12:20;;;;;;;5.27;3.10;;;;;;;17.82;100.00;95974.19;5011203;28;101818;-60
2023/06/09 01:14:54;;;;;;;4.17;3.10;;;;;;;17.61;100.00;95973.06;5011171;28;104917;-60
2023/06/09 01:17:23;;;;;;;3.40;3.00;;;;;;;17.48;100.00;95963.94;5010224;28;105439;-60
2023/06/09 01:19:57;;;;;;;3.33;3.00;;;;;;;17.40;100.00;95971.94;5010831;28;101937;-60
2023/06/09 01:22:37;;;;;;;5.97;3.60;;;;;;;17.79;100.00;95969.41;5010967;28;104773;-60
2023/06/09 01:25:31;;;;;;;3.93;3.50;;;;;;;17.80;100.00;95965.63;5009520;28;106306;-60
2023/06/09 01:28:03;;;;;;;5.00;3.67;;;;;;;17.92;100.00;95957.81;5014407;28;101793;-60
2023/06/09 01:30:33;;;;;;;5.77;3.63;;;;;;;17.93;100.00;95951.31;5010176;28;105178;-60
2023/06/09 01:33:02;;;;;;;3.80;3.40;;;;;;;17.85;100.00;95958.22;5010672;28;102028;-60
2023/06/09 01:35:29;;;;;;;5.17;3.27;;;;;;;17.75;100.00;95957.66;5010351;28;104854;-60
2023/06/09 01:38:23;;;;;;;4.67;3.30;;;;;;;17.79;100.00;95958.66;5008518;28;102257;-60
2023/06/09 01:40:52;;;;;;;3.60;3.30;;;;;;;17.73;100.00;95960.69;5010512;28;101881;-60
2023/06/09 01:43:21;;;;;;;4.03;2.93;;;;;;;17.50;100.00;95960.97;5010570;28;104199;-60
2023/06/09 01:45:47;;;;;;;4.13;3.43;;;;;;;17.44;100.00;95962.19;5009631;28;106359;-60
2023/06/09 01:48:21;;;;;;;3.23;3.03;;;;;;;17.37;100.00;95967.13;5010375;28;102357;-60
2023/06/09 01:50:55;;;;;;;3.43;3.10;;;;;;;17.35;100.00;95967.44;5013203;28;104852;-60
2023/06/09 01:53:27;;;;;;;3.90;3.50;;;;;;;17.39;100.00;95962.28;5012047;28;101860;-60
2023/06/09 01:56:03;;;;;;;4.10;3.40;;;;;;;17.50;100.00;95960.97;5010382;28;105581;-60
2023/06/09 01:58:34;;;;;;;3.77;3.47;;;;;;;17.42;100.00;95953.59;5009388;28;105804;-60
2023/06/09 02:01:02;;;;;;;4.40;3.50;;;;;;;17.66;100.00;95954.13;5010429;28;101974;-60
2023/06/09 02:03:32;;;;;;;3.50;3.00;;;;;;;17.55;100.00;95958.94;5010094;28;104844;-60
2023/06/09 02:06:01;;;;;;;3.40;2.83;;;;;;;17.46;100.00;95962.66;5010572;28;103069;-60
2023/06/09 02:08:30;;;;;;;4.13;3.27;;;;;;;17.40;100.00;95969.25;5010169;28;101876;-60
2023/06/09 02:10:59;;;;;;;3.80;3.40;;;;;;;17.39;100.00;95960.38;5010274;28;105191;-60
2023/06/09 02:13:26;;;;;;;3.93;3.53;;;;;;;17.44;100.00;95962.19;5012896;28;105206;-60
2023/06/09 02:15:53;;;;;;;3.37;3.00;;;;;;;17.42;100.00;95962.47;5009879;28;104858;-60
2023/06/09 02:18:22;;;;;;;6.00;3.50;;;;;;;17.41;100.00;95962.78;5010839;28;102546;-60
2023/06/09 02:20:50;;;;;;;4.43;3.80;;;;;;;17.50;100.00;95966.34;5011303;28;101941;-60
2023/06/09 02:23:19;;;;;;;3.70;3.40;;;;;;;17.40;100.00;95966.56;5009989;28;104079;-60
2023/06/09 02:25:47;;;;;;;3.53;3.33;;;;;;;17.21;100.00;95965.88;5009125;28;105099;-60
2023/06/09 02:28:16;;;;;;;3.43;3.13;;;;;;;16.95;100.00;95964.84;5009874;28;102148;-60
2023/06/09 02:30:43;;;;;;;3.97;3.57;;;;;;;16.81;100.00;95967.53;5009865;28;104868;-60
2023/06/09 02:33:14;;;;;;;4.53;3.80;;;;;;;17.01;100.00;95969.00;5009052;28;104980;-60
2023/06/09 02:35:42;;;;;;;4.17;3.70;;;;;;;17.27;100.00;95967.38;5013206;28;101798;-60
2023/06/09 02:38:11;;;;;;;4.23;3.80;;;;;;;17.11;100.00;95963.44;5007886;28;105420;-60
2023/06/09 02:40:42;;;;;;;3.90;3.60;;;;;;;16.76;100.00;95967.63;5011110;28;101887;-60
2023/06/09 02:43:09;;;;;;;3.70;3.20;;;;;;;16.38;100.00;95963.50;5009791;28;103581;-60
2023/06/09 02:45:38;;;;;;;4.67;4.00;;;;;;;16.29;100.00;95969.88;5008720;28;105181;-60
2023/06/09 02:48:06;;;;;;;6.73;3.60;;;;;;;16.68;100.00;95981.75;5009274;28;101991;-60
2023/06/09 02:50:34;;;;;;;3.90;3.47;;;;;;;16.65;100.00;95971.59;4993063;28;105208;-60
2023/06/09 02:53:03;;;;;;;4.17;3.87;;;;;;;16.55;100.00;95971.00;5008694;28;105093;-60
2023/06/09 02:55:33;;;;;;;5.43;3.67;;;;;;;16.57;100.00;95976.88;5009470;28;101866;-60
2023/06/09 02:58:00;;;;;;;4.30;3.83;;;;;;;16.44;100.00;95981.13;5013633;28;102883;-60
2023/06/09 03:00:29;;;;;;;5.20;3.50;;;;;;;16.52;100.00;95976.97;5009431;28;101850;-60
2023/06/09 03:03:01;;;;;;;4.57;3.83;;;;;;;16.50;100.00;95979.94;5009303;28;105166;-60
2023/06/09 03:05:31;;;;;;;7.13;3.80;;;;;;;16.42;100.00;95980.66;5008361;28;105817;-60
2023/06/09 03:07:59;;;;;;;4.30;3.90;;;;;;;16.38;100.00;95986.84;5009499;28;101816;-60
2023/06/09 03:10:27;;;;;;;5.33;3.80;;;;;;;16.23;100.00;95985.25;5010528;28;102415;-60
2023/06/09 03:12:54;;;;;;;3.90;3.50;;;;;;;16.35;100.00;95995.50;5008625;28;105488;-60
2023/06/09 03:15:21;;;;;;;4.17;3.73;;;;;;;16.79;100.00;95987.72;5008881;28;101983;-60
2023/06/09 03:17:49;;;;;;;5.13;4.17;;;;;;;16.59;100.00;95988.09;5009330;28;104844;-60
2023/06/09 03:20:19;;;;;;;5.40;4.90;;;;;;;16.62;100.00;95982.16;5011547;28;102038;-60
2023/06/09 03:22:49;;;;;;;5.87;5.37;;;;;;;16.30;100.00;95990.22;5009252;28;105025;-60
2023/06/09 03:25:19;;;;;;;5.50;4.90;;;;;;;16.24;100.00;95994.09;5008355;28;105075;-60
2023/06/09 03:27:47;;;;;;;5.30;4.80;;;;;;;16.24;100.00;95994.09;5008886;28;102266;-60
2023/06/09 03:30:15;;;;;;;5.17;4.77;;;;;;;15.89;100.00;95989.31;5008820;28;104624;-60
2023/06/09 03:32:45;;;;;;;6.40;5.80;;;;;;;15.39;100.00;96004.28;5009858;28;102328;-60
2023/06/09 03:35:12;;;;;;;6.40;5.83;;;;;;;15.16;100.00;96007.78;5008811;28;101993;-60
2023/06/09 03:37:41;;;;;;;7.13;5.83;;;;;;;15.12;100.00;96004.09;4992557;28;105743;-60
2023/06/09 03:40:10;;;;;;;6.90;6.20;;;;;;;15.12;100.00;96008.63;5011522;28;104544;-60
2023/06/09 03:42:37;;;;;;;7.23;6.60;;;;;;;15.20;100.00;96016.06;5008900;28;104978;-60
2023/06/09 03:45:05;;;;;;;7.20;6.60;;;;;;;15.10;100.00;96019.63;5007529;28;104030;-60
2023/06/09 03:47:35;;;;;;;7.13;6.47;;;;;;;15.04;100.00;96017.31;5008521;28;101838;-60
2023/06/09 03:50:02;;;;;;;7.03;6.40;;;;;;;15.01;100.00;96015.22;5008426;28;104486;-60
2023/06/09 03:52:32;;;;;;;7.47;6.80;;;;;;;15.14;100.00;96020.66;5007992;28;105956;-60
2023/06/09 03:55:01;;;;;;;8.27;7.47;;;;;;;15.32;100.00;96027.13;5008601;28;102004;-60
2023/06/09 03:57:31;;;;;;;7.10;6.40;;;;;;;15.40;100.00;96027.31;5008427;28;105160;-60
2023/06/09 03:59:58;;;;;;;6.20;5.70;;;;;;;15.44;100.00;96033.69;5007937;28;105770;-60
2023/06/09 04:02:24;;;;;;;6.13;5.70;;;;;;;15.91;100.00;96046.94;5011681;28;101869;-60
2023/06/09 04:04:53;;;;;;;6.73;6.13;;;;;;;15.99;100.00;96034.75;5007698;28;103794;-60
2023/06/09 04:07:20;;;;;;;6.53;5.97;;;;;;;16.08;100.00;96038.38;5008603;28;102251;-60
2023/06/09 04:09:47;;;;;;;7.87;5.60;;;;;;;16.28;100.00;96040.69;5008532;28;104097;-60
2023/06/09 04:12:15;;;;;;;6.70;6.10;;;;;;;16.41;100.00;96034.63;5007825;28;105372;-60
2023/06/09 04:14:42;;;;;;;7.17;6.57;;;;;;;16.57;100.00;96039.41;5007928;28;101907;-60
2023/06/09 04:17:09;;;;;;;6.03;5.53;;;;;;;16.76;100.00;96031.28;5008340;28;105153;-60
2023/06/09 04:19:37;;;;;;;6.90;6.20;;;;;;;16.90;100.00;96037.47;5007659;28;105891;-60
2023/06/09 04:22:07;;;;;;;7.60;7.00;;;;;;;16.82;100.00;96038.94;5008157;28;102487;-60
2023/06/09 04:24:34;;;;;;;6.37;5.77;;;;;;;16.81;100.00;96042.72;5010909;28;105021;-60
2023/06/09 04:27:03;;;;;;;7.33;6.63;;;;;;;16.95;100.00;96042.75;5008144;28;101916;-60
2023/06/09 04:29:33;;;;;;;7.67;6.87;;;;;;;16.99;100.00;96043.72;5007935;28;105140;-60
2023/06/09 04:32:00;;;;;;;7.00;6.30;;;;;;;17.18;100.00;96033.66;5007348;28;105539;-60
2023/06/09 04:34:37;;;;;;;8.70;7.90;;;;;;;17.14;100.00;96038.03;5007985;28;101936;-60
2023/06/09 04:37:06;;;;;;;8.50;7.70;;;;;;;17.13;100.00;96036.47;5008170;28;104797;-60
2023/06/09 04:39:33;;;;;;;7.40;6.70;;;;;;;17.37;100.00;96034.31;5007711;28;104408;-60
2023/06/09 04:42:04;;;;;;;8.73;7.90;;;;;;;17.32;100.00;96042.50;5007985;28;101970;-60
2023/06/09 04:44:35;;;;;;;8.67;7.90;;;;;;;17.33;100.00;96031.44;5007580;28;104419;-60
2023/06/09 04:47:05;;;;;;;8.73;7.83;;;;;;;17.34;100.00;96032.25;5010742;28;105501;-60
2023/06/09 04:49:32;;;;;;;9.90;8.50;;;;;;;17.39;100.00;96035.66;4991287;28;104920;-60
2023/06/09 04:52:00;;;;;;;8.63;7.80;;;;;;;17.50;100.00;96037.03;5007308;28;105070;-60
2023/06/09 04:54:32;;;;;;;8.93;8.00;;;;;;;17.57;100.00;96037.44;5007854;28;101864;-60
2023/06/09 04:57:07;;;;;;;9.20;8.30;;;;;;;17.58;100.00;96043.59;5007721;28;104972;-60
2023/06/09 04:59:36;;;;;;;8.00;7.30;;;;;;;17.58;100.00;96047.06;5008565;28;102681;-60
2023/06/09 05:02:03;;;;;;;8.40;7.60;;;;;;;17.54;100.00;96048.78;5011274;28;101920;-60
2023/06/09 05:04:30;;;;;;;9.73;8.73;;;;;;;17.47;100.00;96050.28;5010996;28;104875;-60
2023/06/09 05:06:57;;;;;;;8.80;8.00;;;;;;;17.44;100.00;96056.28;5010333;28;105329;-60
2023/06/09 05:09:24;;;;;;;8.93;8.07;;;;;;;17.66;100.00;96050.94;5014559;28;101989;-60
2023/06/09 05:11:52;;;;;;;7.50;6.47;;;;;;;17.59;100.00;96056.72;5010568;28;105938;-60
2023/06/09 05:14:19;;;;;;;7.50;6.57;;;;;;;17.42;100.00;96069.19;5011031;28;101943;-60
2023/06/09 05:16:49;;;;;;;8.93;8.03;;;;;;;16.71;100.00;96068.97;5010839;28;105081;-60
2023/06/09 05:19:16;;;;;;;7.90;7.30;;;;;;;16.61;100.00;96069.94;5010244;28;105131;-60
2023/06/09 05:21:46;;;;;;;9.23;8.30;;;;;;;17.15;100.00;96061.94;5011021;28;102480;-60
2023/06/09 05:24:13;;;;;;;8.70;7.57;;;;;;;17.72;100.00;96060.50;5010898;28;106013;-60
2023/06/09 05:26:41;;;;;;;9.97;9.03;;;;;;;17.28;100.00;96069.19;5009894;28;105725;-60
2023/06/09 05:29:08;;;;;;;8.17;6.70;;;;;;;17.63;100.00;96075.75;5014055;28;101787;-60
2023/06/09 05:31:35;;;;;;;8.27;7.57;;;;;;;17.98;100.00;96077.66;5010126;28;105454;-60
2023/06/09 05:34:03;;;;;;;8.60;7.80;;;;;;;18.01;100.00;96066.28;5012102;28;101874;-60
2023/06/09 05:36:31;;;;;;;12.33;9.20;;;;;;;17.78;100.00;96070.03;5010569;28;104889;-60
2023/06/09 05:39:00;;;;;;;11.63;10.53;;;;;;;17.86;100.00;96072.81;5009931;28;105159;-60
2023/06/09 05:41:27;;;;;;;12.20;9.97;;;;;;;17.49;100.00;96073.06;5009632;28;101892;-60
2023/06/09 05:43:57;;;;;;;10.87;9.87;;;;;;;17.88;100.00;96069.81;5009501;28;104801;-60
2023/06/09 05:46:24;;;;;;;9.50;8.60;;;;;;;17.93;100.00;96067.00;5009761;28;105281;-60
2023/06/09 05:48:52;;;;;;;11.17;10.13;;;;;;;17.59;100.00;96075.56;5010396;28;101858;-60
2023/06/09 05:51:20;;;;;;;11.07;10.07;;;;;;;17.54;100.00;96074.88;5012450;28;105022;-60
2023/06/09 05:53:47;;;;;;;10.90;9.80;;;;;;;17.78;100.00;96083.50;5009560;28;102315;-60
2023/06/09 05:56:16;;;;;;;11.83;10.30;;;;;;;18.00;100.00;96078.13;5010214;28;103901;-60
2023/06/09 05:58:44;;;;;;;13.23;8.23;;;;;;;18.02;100.00;96075.94;5008775;28;105498;-60
2023/06/09 06:01:13;;;;;;;9.53;8.73;;;;;;;17.48;100.00;96078.75;5010337;28;101965;-60
2023/06/09 06:03:41;;;;;;;11.63;9.97;;;;;;;17.08;100.00;96079.53;5010234;28;104037;-60
2023/06/09 06:06:09;;;;;;;10.10;9.13;;;;;;;17.22;100.00;96083.81;5008504;28;105206;-60
2023/06/09 06:08:38;;;;;;;10.43;9.43;;;;;;;17.07;100.00;96086.00;5009935;28;101920;-60
2023/06/09 06:11:06;;;;;;;9.60;8.70;;;;;;;17.19;100.00;96086.31;5011226;28;103122;-60
2023/06/09 06:13:32;;;;;;;10.60;9.60;;;;;;;17.27;100.00;96085.63;5014425;28;102542;-60
2023/06/09 06:16:00;;;;;;;10.80;9.70;;;;;;;17.38;100.00;96089.69;5011217;28;102533;-60
2023/06/09 06:18:27;;;;;;;10.90;9.77;;;;;;;17.35;100.00;96083.03;4992511;28;106359;-60
2023/06/09 06:20:54;;;;;;;9.87;8.87;;;;;;;17.70;100.00;96086.88;5009861;28;102056;-60
2023/06/09 06:23:21;;;;;;;10.53;9.53;;;;;;;17.77;100.00;96081.91;5009960;28;105017;-60
2023/06/09 06:25:50;;;;;;;9.60;8.70;;;;;;;18.04;100.00;96079.91;5008901;28;105304;-60
2023/06/09 06:28:18;;;;;;;10.73;9.67;;;;;;;18.13;100.00;96083.47;5010095;28;101934;-60
2023/06/09 06:30:44;;;;;;;11.10;10.10;;;;;;;17.97;100.00;96084.91;5009794;28;105269;-60
2023/06/09 06:33:11;;;;;;;9.07;8.17;;;;;;;18.13;100.00;96085.34;5008300;28;104019;-60
2023/06/09 06:35:38;;;;;;;9.80;8.83;;;;;;;18.20;100.00;96088.44;5012855;28;101932;-60
2023/06/09 06:38:05;;;;;;;11.47;10.37;;;;;;;18.16;100.00;96093.63;5009164;28;104948;-60
2023/06/09 06:40:33;;;;;;;10.93;9.87;;;;;;;18.42;100.00;96091.16;5009979;28;101825;-60
2023/06/09 06:43:01;;;;;;;12.30;11.10;;;;;;;18.46;100.00;96087.53;5009438;28;104922;-60
2023/06/09 06:45:44;;;;;;;13.20;11.80;;;;;;;18.45;100.00;96085.16;5007663;28;104272;-60
2023/06/09 06:48:11;;;;;;;10.30;9.30;;;;;;;18.78;100.00;96086.47;5008703;28;102031;-60
2023/06/09 06:50:40;;;;;;;12.33;11.20;;;;;;;18.96;100.00;96083.53;5009533;28;105468;-60
2023/06/09 06:53:07;;;;;;;14.13;12.70;;;;;;;18.93;100.00;96083.38;5007891;28;105863;-60
2023/06/09 06:55:35;;;;;;;12.53;11.27;;;;;;;18.81;100.00;96088.56;5008271;28;101864;-60
2023/06/09 06:58:03;;;;;;;14.20;12.83;;;;;;;18.60;100.00;96080.22;5011079;28;104397;-60
2023/06/09 07:00:30;;;;;;;15.67;13.63;;;;;;;18.52;100.00;96082.84;5008395;28;102053;-60
2023/06/09 07:02:57;;;;;;;12.73;10.60;;;;;;;18.89;100.00;96080.50;5008337;28;105701;-60
2023/06/09 07:05:25;;;;;;;12.90;11.23;;;;;;;18.38;100.00;96087.50;5007793;28;105261;-60
2023/06/09 07:07:52;;;;;;;12.53;11.30;;;;;;;18.34;100.00;96090.00;5008132;28;101888;-60
2023/06/09 07:10:19;;;;;;;13.67;11.50;;;;;;;18.26;100.00;96088.00;5007977;28;105164;-60
2023/06/09 07:12:46;;;;;;;12.90;11.70;;;;;;;18.33;100.00;96093.00;5007687;28;105971;-60
2023/06/09 07:15:14;;;;;;;12.23;11.13;;;;;;;18.47;100.00;96089.13;5008214;28;101813;-60
2023/06/09 07:17:41;;;;;;;11.37;10.20;;;;;;;18.56;100.00;96090.00;5007892;28;105232;-60
2023/06/09 07:20:10;;;;;;;11.43;10.43;;;;;;;18.83;100.00;96086.34;5010941;28;104124;-60
2023/06/09 07:22:40;;;;;;;11.37;10.27;;;;;;;18.80;100.00;96086.97;5007407;28;105041;-60
2023/06/09 07:25:08;;;;;;;11.87;10.67;;;;;;;18.88;100.00;96091.59;5007583;28;104227;-60
2023/06/09 07:27:35;;;;;;;11.37;10.37;;;;;;;18.90;100.00;96086.69;5007627;28;102207;-60
2023/06/09 07:30:02;;;;;;;11.43;10.23;;;;;;;18.91;100.00;96093.69;5008117;28;105091;-60
2023/06/09 07:32:30;;;;;;;11.40;10.20;;;;;;;18.95;100.00;96084.66;5007375;28;105369;-60
2023/06/09 07:34:57;;;;;;;10.73;9.63;;;;;;;18.98;100.00;96088.63;5007724;28;101949;-60
2023/06/09 07:37:25;;;;;;;11.30;10.30;;;;;;;18.98;100.00;96085.94;5008651;28;105070;-60
2023/06/09 07:39:52;;;;;;;11.00;10.03;;;;;;;18.53;100.00;96087.13;5010772;28;105941;-60
2023/06/09 07:42:19;;;;;;;11.00;10.07;;;;;;;18.48;100.00;96077.25;5007752;28;103607;-60
2023/06/09 07:44:45;;;;;;;11.47;10.37;;;;;;;18.95;100.00;96083.84;5006567;28;105484;-60
2023/06/09 07:47:12;;;;;;;11.10;10.00;;;;;;;18.87;100.00;96082.72;5007624;28;101942;-60
2023/06/09 07:49:40;;;;;;;10.67;9.77;;;;;;;19.05;100.00;96086.28;5007355;28;105315;-60
2023/06/09 07:52:09;;;;;;;11.20;10.10;;;;;;;18.92;100.00;96087.19;5007961;28;105097;-60
2023/06/09 07:54:36;;;;;;;11.27;10.17;;;;;;;18.92;100.00;96077.19;5008943;28;101857;-60
2023/06/09 07:57:03;;;;;;;11.87;10.77;;;;;;;18.83;100.00;96080.94;5007590;28;105089;-60
2023/06/09 07:59:30;;;;;;;12.90;10.77;;;;;;;19.06;100.00;96080.59;5007113;28;105000;-60
2023/06/09 08:01:56;;;;;;;11.40;10.27;;;;;;;19.32;100.00;96073.44;5010767;28;101958;-60
2023/06/09 08:04:23;;;;;;;11.33;10.30;;;;;;;19.40;100.00;96069.16;5006917;28;105041;-60
2023/06/09 08:06:52;;;;;;;11.97;10.77;;;;;;;19.29;100.00;96078.66;5007257;28;101889;-60
2023/06/09 08:09:18;;;;;;;10.53;9.53;;;;;;;19.65;100.00;96065.72;5007557;28;105856;-60
2023/06/09 08:11:45;;;;;;;10.50;9.53;;;;;;;19.91;100.00;96071.94;5007765;28;105840;-60
2023/06/09 08:14:13;;;;;;;9.83;9.03;;;;;;;20.19;100.00;96073.25;5008176;28;101960;-60
2023/06/09 08:16:40;;;;;;;11.20;9.97;;;;;;;20.43;100.00;96073.56;5008278;28;106402;-60
2023/06/09 08:19:06;;;;;;;9.53;8.73;;;;;;;20.66;100.00;96072.25;5006991;28;104943;-60
2023/06/09 08:21:33;;;;;;;10.73;9.70;;;;;;;20.54;100.00;96069.41;5008255;28;102294;-60
2023/06/09 08:24:01;;;;;;;10.63;9.73;;;;;;;19.64;100.00;96056.03;5010951;28;104256;-60
2023/06/09 08:26:28;;;;;;;11.10;10.00;;;;;;;20.28;100.00;96063.25;5008003;28;101854;-60
2023/06/09 08:28:55;;;;;;;10.40;9.40;;;;;;;20.38;100.00;96065.63;5007252;28;103593;-60
2023/06/09 08:31:24;;;;;;;10.50;9.60;;;;;;;20.10;100.00;96062.44;5009023;28;102594;-60
2023/06/09 08:33:51;;;;;;;10.73;9.73;;;;;;;20.41;100.00;96071.19;5007938;28;101842;-60
2023/06/09 08:36:18;;;;;;;9.87;8.97;;;;;;;20.73;100.00;96070.66;5011623;28;102935;-60
2023/06/09 08:38:45;;;;;;;9.20;8.40;;;;;;;20.67;100.00;96066.53;5011107;28;105725;-60
2023/06/09 08:41:15;;;;;;;10.87;9.87;;;;;;;20.58;100.00;96070.34;5011526;28;101987;-60
2023/06/09 08:43:42;;;;;;;9.07;8.17;;;;;;;21.21;100.00;96062.25;5011429;28;103574;-60
2023/06/09 08:46:11;;;;;;;10.07;9.20;;;;;;;21.23;100.00;96060.00;5014010;28;105699;-60
2023/06/09 08:48:42;;;;;;;9.70;8.77;;;;;;;21.35;100.00;96068.19;5012865;28;102354;-60
2023/06/09 08:51:10;;;;;;;8.83;8.13;;;;;;;21.55;100.00;96067.47;5012249;28;103787;-60
2023/06/09 08:53:37;;;;;;;9.83;8.93;;;;;;;21.70;100.00;96058.81;5012677;28;102260;-60
2023/06/09 08:56:04;;;;;;;10.23;9.33;;;;;;;21.71;100.00;96054.97;5011323;28;105435;-60
2023/06/09 08:58:33;;;;;;;10.27;8.60;;;;;;;21.87;100.00;96051.38;5010381;28;105310;-60
2023/06/09 09:01:01;;;;;;;9.23;8.40;;;;;;;22.11;100.00;96048.00;5011136;28;101919;-60
2023/06/09 09:03:28;;;;;;;9.80;8.90;;;;;;;21.87;100.00;96045.16;5011090;28;103690;-60
2023/06/09 09:05:55;;;;;;;10.00;8.97;;;;;;;22.36;100.00;96044.28;5010351;28;105468;-60
2023/06/09 09:08:22;;;;;;;9.63;8.63;;;;;;;22.39;100.00;96041.69;5014560;28;101945;-60
2023/06/09 09:10:49;;;;;;;8.70;7.80;;;;;;;22.59;100.00;96040.09;5010523;28;103857;-60
2023/06/09 09:13:17;;;;;;;9.33;8.53;;;;;;;22.75;100.00;96044.56;5010961;28;102045;-60
2023/06/09 09:15:49;;;;;;;8.43;7.50;;;;;;;23.31;100.00;96040.22;5012239;28;102498;-60
2023/06/09 09:18:17;;;;;;;9.37;8.47;;;;;;;23.48;100.00;96035.38;5010187;28;105045;-60
2023/06/09 09:20:44;;;;;;;9.70;7.87;;;;;;;23.56;100.00;96026.34;5010782;28;102009;-60
2023/06/09 09:23:11;;;;;;;8.37;6.83;;;;;;;23.97;100.00;96030.72;5010868;28;105138;-60
2023/06/09 09:25:38;;;;;;;8.47;7.70;;;;;;;23.91;100.00;96023.91;5010073;28;105394;-60
2023/06/09 09:28:07;;;;;;;8.00;6.50;;;;;;;24.07;100.00;96016.63;5010651;28;102435;-60
2023/06/09 09:30:49;;;;;;;7.07;6.47;;;;;;;24.33;100.00;96022.41;5013712;28;105042;-61
2023/06/09 09:33:20;;;;;;;6.00;5.50;;;;;;;24.42;100.00;96025.78;5010703;28;101821;-61
2023/06/09 09:35:49;;;;;;;7.57;5.00;;;;;;;25.01;100.00;96026.63;5010406;28;104822;-61
2023/06/09 09:38:18;;;;;;;5.07;4.67;;;;;;;25.02;100.00;96017.31;5005296;28;105484;-61
2023/06/09 09:40:46;;;;;;;5.00;4.43;;;;;;;25.13;100.00;96018.38;4990703;28;101956;-61
2023/06/09 09:43:14;;;;;;;5.10;4.50;;;;;;;25.41;100.00;96016.34;5006932;28;104758;-61
2023/06/09 09:45:44;;;;;;;4.03;3.73;;;;;;;25.11;99.21;96017.94;4989124;28;105250;-61
2023/06/09 09:48:14;;;;;;;3.80;3.50;;;;;;;25.22;100.00;96005.38;4989887;28;102101;-61
2023/06/09 09:50:43;;;;;;;3.80;3.50;;;;;;;25.78;100.00;96007.47;4993135;28;105462;-61
2023/06/09 09:53:10;;;;;;;3.57;3.37;;;;;;;26.21;98.59;96003.78;5007066;28;102013;-61
2023/06/09 09:55:39;;;;;;;3.90;3.60;;;;;;;24.92;89.01;96006.94;5007182;28;105129;-61
2023/06/09 09:58:07;;;;;;;3.60;3.30;;;;;;;25.13;97.38;95996.59;4989519;28;105226;-61
2023/06/09 10:00:36;;;;;;;3.37;3.03;;;;;;;25.86;96.66;95997.53;5006954;28;102056;-61
2023/06/09 10:03:08;;;;;;;3.80;3.50;;;;;;;25.94;95.03;96000.09;4990151;28;103737;-61
2023/06/09 10:05:39;;;;;;;3.30;3.10;;;;;;;26.55;90.21;95997.47;4989642;28;105404;-61
2023/06/09 10:08:07;;;;;;;2.80;2.60;;;;;;;26.77;76.24;96002.97;4991759;28;101711;-61
2023/06/09 10:10:35;;;;;;;3.23;3.00;;;;;;;26.83;76.77;95996.06;4990130;28;104848;-61
2023/06/09 10:13:03;;;;;;;2.90;2.70;;;;;;;26.88;75.59;95989.50;4993021;28;105136;-61
2023/06/09 10:15:32;;;;;;;3.00;2.70;;;;;;;27.20;69.68;95990.84;4990207;28;105134;-61
2023/06/09 10:18:00;;;;;;;2.93;2.60;;;;;;;27.56;64.94;95992.97;4989309;28;105697;-61
2023/06/09 10:20:27;;;;;;;2.80;2.60;;;;;;;27.53;62.89;95980.06;4990066;28;101943;-61
2023/06/09 10:22:55;;;;;;;2.60;2.40;;;;;;;27.68;56.60;95984.56;4973425;28;105211;-61
2023/06/09 10:25:25;;;;;;;2.53;2.43;;;;;;;28.14;55.32;95975.06;4989315;28;105144;-61
2023/06/09 10:27:52;;;;;;;2.47;2.20;;;;;;;28.02;52.34;95978.03;4991201;28;101872;-61
2023/06/09 10:30:20;;;;;;;2.20;2.10;;;;;;;28.00;51.58;95980.38;4991396;28;102466;-61
2023/06/09 10:32:53;;;;;;;2.05;1.88;;;;;;;28.33;53.23;95975.69;4990634;28;102585;-61
2023/06/09 10:35:26;;;;;;;2.30;2.10;;;;;;;28.27;47.91;95973.69;4993221;28;102017;-61
2023/06/09 10:37:56;;;;;;;1.70;1.60;;;;;;;28.11;44.07;95970.34;4988895;28;104367;-61
2023/06/09 10:40:30;;;;;;;2.13;2.03;;;;;;;28.28;47.57;95964.31;5006448;28;102309;-61
2023/06/09 10:43:11;;;;;;;2.55;1.90;;;;;;;28.59;45.47;95963.88;4989833;28;104743;-61
2023/06/09 10:45:56;;;;;;;1.98;1.63;;;;;;;28.64;42.98;95971.75;4988192;28;105282;-61
2023/06/09 10:48:45;;;;;;;1.90;1.80;;;;;;;29.35;43.77;95965.78;4990850;28;102057;-61
2023/06/09 10:51:44;;;;;;;2.10;2.00;;;;;;;28.75;40.77;95956.22;4991206;28;102356;-61
2023/06/09 10:54:26;;;;;;;2.13;2.03;;;;;;;27.69;43.38;95958.81;4948954;28;103068;-61
2023/06/09 10:57:00;;;;;;;2.40;2.25;;;;;;;28.47;50.15;95955.94;4948354;28;102060;-61
2023/06/09 10:59:54;;;;;;;2.60;2.40;;;;;;;28.90;48.88;95953.25;4950964;28;105423;-61
2023/06/09 11:02:21;;;;;;;2.40;2.20;;;;;;;28.61;47.65;95947.91;4949298;28;101910;-61
2023/06/09 11:04:50;;;;;;;2.72;2.40;;;;;;;28.41;48.69;95951.97;4932401;28;105731;-61
2023/06/09 11:07:19;;;;;;;2.80;2.60;;;;;;;29.12;47.18;95944.09;4932050;28;105368;-61
2023/06/09 11:10:35;;;;;;;2.97;2.22;;;;;;;29.54;43.90;95941.66;4948976;28;101977;-61
2023/06/09 11:13:04;;;;;;;2.00;1.90;;;;;;;29.67;41.54;95934.72;4932550;28;104861;-61
2023/06/09 11:16:02;;;;;;;2.17;2.00;;;;;;;29.29;40.53;95932.47;4947778;28;102491;-61
2023/06/09 11:18:30;;;;;;;2.30;2.17;;;;;;;28.98;45.88;95937.72;4948750;28;101927;-61
2023/06/09 11:21:19;;;;;;;2.28;2.17;;;;;;;28.51;41.43;95929.41;4948905;28;102420;-61
2023/06/09 11:24:03;;;;;;;2.15;2.05;;;;;;;27.41;40.46;95922.91;4951973;28;102511;-61